createdAt,value
2023-02-21T00:01:46.746Z,8.07
2023-02-21T00:04:32.144Z,8.18
2023-02-21T00:07:17.492Z,7.47
2023-02-21T00:10:02.982Z,7.40
2023-02-21T00:12:48.516Z,7.63
2023-02-21T00:15:33.966Z,7.50
2023-02-21T00:18:19.480Z,6.93
2023-02-21T00:21:04.810Z,7.20
2023-02-21T00:23:54.314Z,7.03
2023-02-21T00:26:40.059Z,7.25
2023-02-21T00:29:25.435Z,7.03
2023-02-21T00:32:11.893Z,7.50
2023-02-21T00:34:57.355Z,7.07
2023-02-21T00:37:42.795Z,7.15
2023-02-21T00:40:31.166Z,7.38
2023-02-21T00:43:16.436Z,7.32
2023-02-21T00:46:02.911Z,7.30
2023-02-21T00:48:48.535Z,7.40
2023-02-21T00:51:33.839Z,7.50
2023-02-21T00:54:19.189Z,6.97
2023-02-21T00:57:04.948Z,7.72
2023-02-21T00:59:50.374Z,7.47
2023-02-21T01:02:35.801Z,7.10
2023-02-21T01:05:21.845Z,7.15
2023-02-21T01:08:07.016Z,7.45
2023-02-21T01:10:52.312Z,7.18
2023-02-21T01:13:37.737Z,7.57
2023-02-21T01:16:25.775Z,6.78
2023-02-21T01:19:11.022Z,7.00
2023-02-21T01:21:56.378Z,6.90
2023-02-21T01:24:41.748Z,7.40
2023-02-21T01:27:27.036Z,6.75
2023-02-21T01:30:12.565Z,6.78
2023-02-21T01:32:58.125Z,6.82
2023-02-21T01:35:44.949Z,6.40
2023-02-21T01:38:30.276Z,6.45
2023-02-21T01:41:15.816Z,6.60
2023-02-21T01:44:22.908Z,7.00
2023-02-21T01:47:08.461Z,7.00
2023-02-21T01:49:55.319Z,6.97
2023-02-21T01:52:40.565Z,6.55
2023-02-21T01:55:26.489Z,7.07
2023-02-21T01:58:11.665Z,6.60
2023-02-21T02:00:57.672Z,6.35
2023-02-21T02:03:43.174Z,6.90
2023-02-21T02:06:31.939Z,6.88
2023-02-21T02:09:32.899Z,6.75
2023-02-21T02:12:18.360Z,6.70
2023-02-21T02:15:11.352Z,6.60
2023-02-21T02:17:50.432Z,6.30
2023-02-21T02:20:29.121Z,7.00
2023-02-21T02:23:22.927Z,6.38
2023-02-21T02:26:13.273Z,6.25
2023-02-21T02:28:40.480Z,6.63
2023-02-21T02:31:19.456Z,6.18
2023-02-21T02:34:28.129Z,6.00
2023-02-21T02:37:11.280Z,6.07
2023-02-21T02:40:12.044Z,6.57
2023-02-21T02:43:10.721Z,5.95
2023-02-21T02:45:46.720Z,5.75
2023-02-21T02:48:43.101Z,6.15
2023-02-21T02:51:13.840Z,6.10
2023-02-21T02:53:41.466Z,6.00
2023-02-21T02:56:10.991Z,6.57
2023-02-21T02:58:44.932Z,5.93
2023-02-21T03:01:31.594Z,6.13
2023-02-21T03:04:28.446Z,6.45
2023-02-21T03:07:04.391Z,6.60
2023-02-21T03:09:39.605Z,6.03
2023-02-21T03:12:20.304Z,6.10
2023-02-21T03:14:59.021Z,6.05
2023-02-21T03:17:26.830Z,6.07
2023-02-21T03:19:53.671Z,6.30
2023-02-21T03:22:22.412Z,6.38
2023-02-21T03:24:49.595Z,5.80
2023-02-21T03:27:16.835Z,6.22
2023-02-21T03:30:02.131Z,5.97
2023-02-21T03:32:37.829Z,6.20
2023-02-21T03:35:05.520Z,6.13
2023-02-21T03:37:36.839Z,6.38
2023-02-21T03:40:18.419Z,5.90
2023-02-21T03:42:48.648Z,5.78
2023-02-21T03:45:18.179Z,5.88
2023-02-21T03:47:55.411Z,6.10
2023-02-21T03:50:22.679Z,6.13
2023-02-21T03:52:49.582Z,5.78
2023-02-21T03:55:16.588Z,5.75
2023-02-21T03:57:43.826Z,6.35
2023-02-21T04:00:11.838Z,6.15
2023-02-21T04:02:50.090Z,5.75
2023-02-21T04:05:28.874Z,6.03
2023-02-21T04:07:56.440Z,5.72
2023-02-21T04:10:23.216Z,5.72
2023-02-21T04:12:50.051Z,5.90
2023-02-21T04:15:17.061Z,5.28
2023-02-21T04:17:44.619Z,6.05
2023-02-21T04:20:11.589Z,5.35
2023-02-21T04:22:45.767Z,5.47
2023-02-21T04:25:15.039Z,5.18
2023-02-21T04:27:48.923Z,4.85
2023-02-21T04:30:15.904Z,4.95
2023-02-21T04:32:42.994Z,5.07
2023-02-21T04:35:13.674Z,5.13
2023-02-21T04:37:43.157Z,5.18
2023-02-21T04:40:10.420Z,5.30
2023-02-21T04:42:37.268Z,5.00
2023-02-21T04:45:04.151Z,5.13
2023-02-21T04:47:31.020Z,5.65
2023-02-21T04:49:58.744Z,5.65
2023-02-21T04:52:25.668Z,5.70
2023-02-21T04:54:52.507Z,5.43
2023-02-21T04:57:19.340Z,5.60
2023-02-21T04:59:46.177Z,5.45
2023-02-21T05:02:13.115Z,5.70
2023-02-21T05:04:39.978Z,5.50
2023-02-21T05:07:06.831Z,5.15
2023-02-21T05:09:33.951Z,5.22
2023-02-21T05:12:00.734Z,5.55
2023-02-21T05:14:27.632Z,5.25
2023-02-21T05:16:54.464Z,5.00
2023-02-21T05:19:27.441Z,5.63
2023-02-21T05:21:59.034Z,5.20
2023-02-21T05:24:26.782Z,5.45
2023-02-21T05:26:53.675Z,5.30
2023-02-21T05:29:20.445Z,5.32
2023-02-21T05:31:47.656Z,5.72
2023-02-21T05:34:14.867Z,5.40
2023-02-21T05:36:42.191Z,5.45
2023-02-21T05:39:09.303Z,5.18
2023-02-21T05:41:36.313Z,5.13
2023-02-21T05:44:03.569Z,5.35
2023-02-21T05:46:32.696Z,5.00
2023-02-21T05:49:00.289Z,5.30
2023-02-21T05:51:27.518Z,5.20
2023-02-21T05:53:54.451Z,4.57
2023-02-21T05:56:21.292Z,5.15
2023-02-21T05:58:48.204Z,5.28
2023-02-21T06:01:15.388Z,5.07
2023-02-21T06:03:43.164Z,5.00
2023-02-21T06:06:10.083Z,5.28
2023-02-21T06:08:44.669Z,4.97
2023-02-21T06:11:11.601Z,4.50
2023-02-21T06:13:38.513Z,4.35
2023-02-21T06:16:05.773Z,4.80
2023-02-21T06:18:33.108Z,4.75
2023-02-21T06:20:59.936Z,5.00
2023-02-21T06:23:26.945Z,5.13
2023-02-21T06:25:53.853Z,4.90
2023-02-21T06:28:20.681Z,4.43
2023-02-21T06:30:47.670Z,4.22
2023-02-21T06:33:14.602Z,4.50
2023-02-21T06:35:41.527Z,4.70
2023-02-21T06:38:08.359Z,4.80
2023-02-21T06:40:35.248Z,4.45
2023-02-21T06:43:02.003Z,4.32
2023-02-21T06:45:28.990Z,4.07
2023-02-21T06:47:55.818Z,4.25
2023-02-21T06:50:22.728Z,4.50
2023-02-21T06:52:49.584Z,4.22
2023-02-21T06:55:25.585Z,4.97
2023-02-21T06:57:52.732Z,4.90
2023-02-21T07:00:19.712Z,5.38
2023-02-21T07:02:46.624Z,5.18
2023-02-21T07:05:13.523Z,5.40
2023-02-21T07:07:40.520Z,5.43
2023-02-21T07:10:07.567Z,5.55
2023-02-21T07:12:34.609Z,6.00
2023-02-21T07:15:01.732Z,6.05
2023-02-21T07:17:28.617Z,5.38
2023-02-21T07:19:55.411Z,5.80
2023-02-21T07:22:26.192Z,5.55
2023-02-21T07:24:53.954Z,5.60
2023-02-21T07:27:20.893Z,5.90
2023-02-21T07:29:48.527Z,5.75
2023-02-21T07:32:16.089Z,5.65
2023-02-21T07:34:42.985Z,6.65
2023-02-21T07:37:10.019Z,6.82
2023-02-21T07:39:37.834Z,6.88
2023-02-21T07:42:05.202Z,6.38
2023-02-21T07:44:32.241Z,6.30
2023-02-21T07:47:01.938Z,6.13
2023-02-21T07:49:31.157Z,6.32
2023-02-21T07:51:58.219Z,5.68
2023-02-21T07:54:25.224Z,5.97
2023-02-21T07:56:52.262Z,5.70
2023-02-21T07:59:19.344Z,5.60
2023-02-21T08:01:47.637Z,6.00
2023-02-21T08:04:14.952Z,6.30
2023-02-21T08:06:41.932Z,5.53
2023-02-21T08:09:08.796Z,5.80
2023-02-21T08:11:36.713Z,5.80
2023-02-21T08:14:04.477Z,6.03
2023-02-21T08:16:33.715Z,5.90
2023-02-21T08:19:01.631Z,5.72
2023-02-21T08:21:28.625Z,6.25
2023-02-21T08:23:55.680Z,6.20
2023-02-21T08:26:22.927Z,5.88
2023-02-21T08:28:49.943Z,5.72
2023-02-21T08:31:17.054Z,6.03
2023-02-21T08:33:45.118Z,5.97
2023-02-21T08:36:12.361Z,5.70
2023-02-21T08:38:39.837Z,6.15
2023-02-21T08:41:06.723Z,6.50
2023-02-21T08:43:33.651Z,6.00
2023-02-21T08:46:00.680Z,6.03
2023-02-21T08:48:27.552Z,6.10
2023-02-21T08:50:54.491Z,6.88
2023-02-21T08:53:31.306Z,7.38
2023-02-21T08:55:58.192Z,7.38
2023-02-21T08:58:25.088Z,7.85
2023-02-21T09:00:51.982Z,7.22
2023-02-21T09:03:18.789Z,7.18
2023-02-21T09:05:45.634Z,6.72
2023-02-21T09:08:12.477Z,7.10
2023-02-21T09:10:44.612Z,6.72
2023-02-21T09:13:11.610Z,6.38
2023-02-21T09:15:38.504Z,6.25
2023-02-21T09:18:06.699Z,6.68
2023-02-21T09:20:33.554Z,6.90
2023-02-21T09:23:00.341Z,6.88
2023-02-21T09:25:27.169Z,6.30
2023-02-21T09:27:54.694Z,6.65
2023-02-21T09:30:24.454Z,6.68
2023-02-21T09:32:51.482Z,7.10
2023-02-21T09:35:18.468Z,7.00
2023-02-21T09:37:45.677Z,7.88
2023-02-21T09:40:29.596Z,7.85
2023-02-21T09:42:57.481Z,7.35
2023-02-21T09:45:25.030Z,7.60
2023-02-21T09:47:54.463Z,8.10
2023-02-21T09:50:27.682Z,7.78
2023-02-21T09:52:56.569Z,7.55
2023-02-21T09:55:37.529Z,7.97
2023-02-21T09:58:06.362Z,7.45
2023-02-21T10:00:38.877Z,7.25
2023-02-21T10:03:33.753Z,7.70
2023-02-21T10:06:36.370Z,8.18
2023-02-21T10:09:27.983Z,8.00
2023-02-21T10:12:05.914Z,8.63
2023-02-21T10:14:56.400Z,8.63
2023-02-21T10:17:30.490Z,8.48
2023-02-21T10:20:04.539Z,8.52
2023-02-21T10:22:36.597Z,8.70
2023-02-21T10:25:22.888Z,8.95
2023-02-21T10:27:50.683Z,8.13
2023-02-21T10:30:29.932Z,8.30
2023-02-21T10:32:57.177Z,8.43
2023-02-21T10:35:24.240Z,8.75
2023-02-21T10:37:56.341Z,9.10
2023-02-21T10:40:44.378Z,8.90
2023-02-21T10:43:12.856Z,8.70
2023-02-21T10:45:49.016Z,8.23
2023-02-21T10:48:16.082Z,8.63
2023-02-21T10:50:52.915Z,9.00
2023-02-21T10:53:31.265Z,9.45
2023-02-21T10:56:13.155Z,9.82
2023-02-21T10:58:40.400Z,10.00
2023-02-21T11:01:16.376Z,10.27
2023-02-21T11:03:47.379Z,10.80
2023-02-21T11:06:32.327Z,11.57
2023-02-21T11:08:59.382Z,10.98
2023-02-21T11:11:59.966Z,11.32
2023-02-21T11:14:27.149Z,10.95
2023-02-21T11:17:15.510Z,12.57
2023-02-21T11:19:42.960Z,12.75
2023-02-21T11:22:10.022Z,12.32
2023-02-21T11:24:51.681Z,12.15
2023-02-21T11:27:18.513Z,14.67
2023-02-21T11:29:46.963Z,14.10
2023-02-21T11:32:21.558Z,15.35
2023-02-21T11:34:49.199Z,15.38
2023-02-21T11:37:16.331Z,15.25
2023-02-21T11:39:43.282Z,14.82
2023-02-21T11:42:31.342Z,14.50
2023-02-21T11:45:14.061Z,13.20
2023-02-21T11:47:46.964Z,14.05
2023-02-21T11:50:49.747Z,12.65
2023-02-21T11:53:23.741Z,12.02
2023-02-21T11:55:58.180Z,12.00
2023-02-21T11:58:43.575Z,10.63
2023-02-21T12:01:32.438Z,10.93
2023-02-21T12:04:19.550Z,11.95
2023-02-21T12:06:51.857Z,12.05
2023-02-21T12:09:25.082Z,10.63
2023-02-21T12:12:24.629Z,10.05
2023-02-21T12:14:57.912Z,10.60
2023-02-21T12:17:59.975Z,9.70
2023-02-21T12:20:45.918Z,9.07
2023-02-21T12:23:41.980Z,8.95
2023-02-21T12:26:28.826Z,9.80
2023-02-21T12:29:21.979Z,9.60
2023-02-21T12:32:10.124Z,8.82
2023-02-21T12:34:37.009Z,10.48
2023-02-21T12:37:10.895Z,9.48
2023-02-21T12:39:42.779Z,10.82
2023-02-21T12:42:33.650Z,9.75
2023-02-21T12:45:26.755Z,9.30
2023-02-21T12:48:05.986Z,9.95
2023-02-21T12:50:38.708Z,10.45
2023-02-21T12:53:21.951Z,9.95
2023-02-21T12:56:14.041Z,10.52
2023-02-21T12:58:45.994Z,10.65
2023-02-21T13:01:28.335Z,10.30
2023-02-21T13:04:07.012Z,10.55
2023-02-21T13:06:46.548Z,10.90
2023-02-21T13:09:24.716Z,10.65
2023-02-21T13:12:14.695Z,10.77
2023-02-21T13:15:06.159Z,11.95
2023-02-21T13:17:33.167Z,11.48
2023-02-21T13:20:06.219Z,11.35
2023-02-21T13:23:10.628Z,10.75
2023-02-21T13:26:00.389Z,10.50
2023-02-21T13:28:28.965Z,10.02
2023-02-21T13:31:00.950Z,9.27
2023-02-21T13:33:44.098Z,9.23
2023-02-21T13:36:33.786Z,9.05
2023-02-21T13:39:19.248Z,9.55
2023-02-21T13:41:55.848Z,8.75
2023-02-21T13:44:42.106Z,9.07
2023-02-21T13:47:15.856Z,8.82
2023-02-21T13:49:48.197Z,8.75
2023-02-21T13:52:24.203Z,8.30
2023-02-21T13:55:16.812Z,8.52
2023-02-21T13:58:15.423Z,8.30
2023-02-21T14:00:42.268Z,8.52
2023-02-21T14:03:09.903Z,8.05
2023-02-21T14:05:52.229Z,8.48
2023-02-21T14:08:29.730Z,8.38
2023-02-21T14:11:00.932Z,8.90
2023-02-21T14:13:48.082Z,8.80
2023-02-21T14:16:15.345Z,8.35
2023-02-21T14:18:51.192Z,9.23
2023-02-21T14:21:39.171Z,9.80
2023-02-21T14:24:21.756Z,9.27
2023-02-21T14:27:03.657Z,10.13
2023-02-21T14:29:41.401Z,9.70
2023-02-21T14:32:08.466Z,10.65
2023-02-21T14:34:47.355Z,10.18
2023-02-21T14:37:36.131Z,10.40
2023-02-21T14:40:18.057Z,10.52
2023-02-21T14:43:07.962Z,10.75
2023-02-21T14:46:00.859Z,11.27
2023-02-21T14:48:49.716Z,9.90
2023-02-21T14:51:31.517Z,10.45
2023-02-21T14:54:19.910Z,10.38
2023-02-21T14:56:52.576Z,9.70
2023-02-21T14:59:44.092Z,9.60
2023-02-21T15:02:25.877Z,8.57
2023-02-21T15:05:08.175Z,8.38
2023-02-21T15:07:42.292Z,7.45
2023-02-21T15:10:21.617Z,6.95
2023-02-21T15:12:53.457Z,7.75
2023-02-21T15:15:38.240Z,7.50
2023-02-21T15:18:08.003Z,8.40
2023-02-21T15:20:36.969Z,7.90
2023-02-21T15:23:19.296Z,8.15
2023-02-21T15:25:54.156Z,8.30
2023-02-21T15:28:25.646Z,7.75
2023-02-21T15:31:04.942Z,7.80
2023-02-21T15:33:39.670Z,7.40
2023-02-21T15:36:07.490Z,6.55
2023-02-21T15:39:05.916Z,7.10
2023-02-21T15:41:45.956Z,6.15
2023-02-21T15:44:28.850Z,5.68
2023-02-21T15:47:02.591Z,5.53
2023-02-21T15:49:31.881Z,5.72
2023-02-21T15:51:58.890Z,6.10
2023-02-21T15:54:25.946Z,5.55
2023-02-21T15:57:17.465Z,7.75
2023-02-21T15:59:44.610Z,6.70
2023-02-21T16:02:11.599Z,8.55
2023-02-21T16:04:40.191Z,10.68
2023-02-21T16:07:08.503Z,8.48
2023-02-21T16:09:35.916Z,8.07
2023-02-21T16:12:11.658Z,8.75
2023-02-21T16:14:41.651Z,7.45
2023-02-21T16:17:20.796Z,7.35
2023-02-21T16:19:52.469Z,7.15
2023-02-21T16:22:27.504Z,9.25
2023-02-21T16:25:07.513Z,7.55
2023-02-21T16:27:38.322Z,7.28
2023-02-21T16:30:05.609Z,7.15
2023-02-21T16:32:32.754Z,6.68
2023-02-21T16:34:59.565Z,7.28
2023-02-21T16:37:28.059Z,6.57
2023-02-21T16:39:55.202Z,6.57
2023-02-21T16:42:22.146Z,7.88
2023-02-21T16:44:50.012Z,10.57
2023-02-21T16:47:17.090Z,11.77
2023-02-21T16:49:44.238Z,9.57
2023-02-21T16:52:14.721Z,7.78
2023-02-21T16:54:41.686Z,6.90
2023-02-21T16:57:09.963Z,7.55
2023-02-21T16:59:37.005Z,7.57
2023-02-21T17:02:05.080Z,7.82
2023-02-21T17:04:33.817Z,6.55
2023-02-21T17:07:03.659Z,6.70
2023-02-21T17:09:33.584Z,6.53
2023-02-21T17:12:01.018Z,6.80
2023-02-21T17:14:27.877Z,7.38
2023-02-21T17:16:59.758Z,7.40
2023-02-21T17:19:26.695Z,7.15
2023-02-21T17:21:54.095Z,7.78
2023-02-21T17:24:20.976Z,6.30
2023-02-21T17:26:47.797Z,7.78
2023-02-21T17:29:14.741Z,7.13
2023-02-21T17:31:41.589Z,8.95
2023-02-21T17:34:08.493Z,7.72
2023-02-21T17:36:35.504Z,8.38
2023-02-21T17:39:02.446Z,9.88
2023-02-21T17:41:29.384Z,11.27
2023-02-21T17:43:56.370Z,11.07
2023-02-21T17:46:23.451Z,11.15
2023-02-21T17:48:50.431Z,8.95
2023-02-21T17:51:24.415Z,10.07
2023-02-21T17:53:51.900Z,10.32
2023-02-21T17:56:20.187Z,8.75
2023-02-21T17:58:47.415Z,8.43
2023-02-21T18:01:18.753Z,7.93
2023-02-21T18:03:47.480Z,9.27
2023-02-21T18:06:14.899Z,10.43
2023-02-21T18:08:44.848Z,10.50
2023-02-21T18:11:12.168Z,10.57
2023-02-21T18:13:39.121Z,10.15
2023-02-21T18:16:06.324Z,9.85
2023-02-21T18:18:33.738Z,10.02
2023-02-21T18:21:02.474Z,10.25
2023-02-21T18:23:30.391Z,10.27
2023-02-21T18:25:57.423Z,14.70
2023-02-21T18:28:24.489Z,12.70
2023-02-21T18:30:51.937Z,12.00
2023-02-21T18:33:19.104Z,10.80
2023-02-21T18:35:46.029Z,9.80
2023-02-21T18:38:18.842Z,10.52
2023-02-21T18:40:45.914Z,10.35
2023-02-21T18:43:19.892Z,11.82
2023-02-21T18:45:47.945Z,11.77
2023-02-21T18:48:14.870Z,13.88
2023-02-21T18:50:41.819Z,14.32
2023-02-21T18:53:08.860Z,13.63
2023-02-21T18:55:35.784Z,13.30
2023-02-21T18:58:02.713Z,13.25
2023-02-21T19:00:29.700Z,14.48
2023-02-21T19:02:56.776Z,14.13
2023-02-21T19:05:24.416Z,13.48
2023-02-21T19:07:53.669Z,13.68
2023-02-21T19:10:22.232Z,13.95
2023-02-21T19:12:49.801Z,13.10
2023-02-21T19:15:16.994Z,12.95
2023-02-21T19:17:44.056Z,13.50
2023-02-21T19:20:12.075Z,12.88
2023-02-21T19:22:39.000Z,13.73
2023-02-21T19:25:06.458Z,14.15
2023-02-21T19:27:33.503Z,13.32
2023-02-21T19:30:00.468Z,12.48
2023-02-21T19:32:27.313Z,11.43
2023-02-21T19:34:54.291Z,12.10
2023-02-21T19:37:21.334Z,20.20
2023-02-21T19:39:48.232Z,40.63
2023-02-21T19:42:15.166Z,23.00
2023-02-21T19:44:42.065Z,16.40
2023-02-21T19:47:09.223Z,17.05
2023-02-21T19:49:36.089Z,17.85
2023-02-21T19:52:03.123Z,15.57
2023-02-21T19:54:30.881Z,15.27
2023-02-21T19:56:58.392Z,15.15
2023-02-21T19:59:26.996Z,14.75
2023-02-21T20:01:54.280Z,13.85
2023-02-21T20:04:21.643Z,14.35
2023-02-21T20:06:49.831Z,17.33
2023-02-21T20:09:16.999Z,18.48
2023-02-21T20:11:43.868Z,18.80
2023-02-21T20:14:11.270Z,18.13
2023-02-21T20:16:40.002Z,17.45
2023-02-21T20:19:07.502Z,15.30
2023-02-21T20:21:34.521Z,14.63
2023-02-21T20:24:01.472Z,16.45
2023-02-21T20:26:29.191Z,15.20
2023-02-21T20:28:56.350Z,14.55
2023-02-21T20:31:26.133Z,15.93
2023-02-21T20:33:53.168Z,15.25
2023-02-21T20:36:27.961Z,14.55
2023-02-21T20:38:54.920Z,13.88
2023-02-21T20:41:21.797Z,13.88
2023-02-21T20:43:49.666Z,12.65
2023-02-21T20:46:23.043Z,11.90
2023-02-21T20:48:50.071Z,12.45
2023-02-21T20:51:17.964Z,11.90
2023-02-21T20:53:49.347Z,12.35
2023-02-21T20:56:16.217Z,12.77
2023-02-21T20:58:43.371Z,12.65
2023-02-21T21:01:14.743Z,11.95
2023-02-21T21:03:41.928Z,13.20
2023-02-21T21:06:11.723Z,13.18
2023-02-21T21:08:41.039Z,13.18
2023-02-21T21:11:08.893Z,12.82
2023-02-21T21:13:36.580Z,12.80
2023-02-21T21:16:05.238Z,11.98
2023-02-21T21:18:32.416Z,13.02
2023-02-21T21:20:59.288Z,12.88
2023-02-21T21:23:26.193Z,12.90
2023-02-21T21:25:53.040Z,12.88
2023-02-21T21:28:19.915Z,13.38
2023-02-21T21:30:48.148Z,12.60
2023-02-21T21:33:19.401Z,11.63
2023-02-21T21:35:46.296Z,11.57
2023-02-21T21:38:15.074Z,11.90
2023-02-21T21:40:47.737Z,11.27
2023-02-21T21:43:15.263Z,11.65
2023-02-21T21:45:44.485Z,11.65
2023-02-21T21:48:11.850Z,11.77
2023-02-21T21:50:38.744Z,11.25
2023-02-21T21:53:06.794Z,10.60
2023-02-21T21:55:35.455Z,11.15
2023-02-21T21:58:02.501Z,11.07
2023-02-21T22:00:30.283Z,11.40
2023-02-21T22:02:58.716Z,11.20
2023-02-21T22:05:32.854Z,11.00
2023-02-21T22:07:59.758Z,13.02
2023-02-21T22:10:26.877Z,13.18
2023-02-21T22:12:54.297Z,12.50
2023-02-21T22:15:25.666Z,12.50
2023-02-21T22:17:52.737Z,13.20
2023-02-21T22:20:21.760Z,12.52
2023-02-21T22:22:50.167Z,12.90
2023-02-21T22:25:19.113Z,13.00
2023-02-21T22:27:46.947Z,12.05
2023-02-21T22:30:18.545Z,12.98
2023-02-21T22:32:46.337Z,12.70
2023-02-21T22:35:18.241Z,12.57
2023-02-21T22:37:50.588Z,12.00
2023-02-21T22:42:45.326Z,12.48
2023-02-21T22:45:12.283Z,13.35
2023-02-21T22:47:39.235Z,13.90
2023-02-21T22:50:06.374Z,14.05
2023-02-21T22:52:33.254Z,13.95
2023-02-21T22:55:00.149Z,14.32
2023-02-21T22:57:27.509Z,14.90
2023-02-21T22:59:55.779Z,14.63
2023-02-21T23:02:22.727Z,15.57
2023-02-21T23:04:49.586Z,15.60
2023-02-21T23:07:17.334Z,14.77
2023-02-21T23:09:44.180Z,16.15
2023-02-21T23:12:11.380Z,16.35
2023-02-21T23:14:39.488Z,16.13
2023-02-21T23:17:06.574Z,15.50
2023-02-21T23:19:34.643Z,16.50
2023-02-21T23:22:01.573Z,16.77
2023-02-21T23:24:28.516Z,16.60
2023-02-21T23:26:55.432Z,15.95
2023-02-21T23:29:24.636Z,16.42
2023-02-21T23:31:52.259Z,16.40
2023-02-21T23:34:19.865Z,16.40
2023-02-21T23:36:46.758Z,16.65
2023-02-21T23:39:15.126Z,15.77
2023-02-21T23:41:42.862Z,15.63
2023-02-21T23:44:11.079Z,15.57
2023-02-21T23:46:40.145Z,14.88
2023-02-21T23:49:10.794Z,14.50
2023-02-21T23:51:38.547Z,14.57
2023-02-21T23:54:07.212Z,14.77
2023-02-21T23:56:35.678Z,15.23
2023-02-21T23:59:06.114Z,14.77
